createdAt,value
2022-08-26T00:00:19.609Z,15.40
2022-08-26T00:02:48.259Z,15.50
2022-08-26T00:05:18.134Z,15.50
2022-08-26T00:07:46.245Z,15.50
2022-08-26T00:10:15.084Z,15.60
2022-08-26T00:12:43.563Z,15.60
2022-08-26T00:15:14.759Z,15.50
2022-08-26T00:17:43.239Z,15.40
2022-08-26T00:20:14.160Z,15.50
2022-08-26T00:22:47.031Z,15.50
2022-08-26T00:25:15.821Z,15.50
2022-08-26T00:27:46.004Z,15.40
2022-08-26T00:30:18.350Z,15.30
2022-08-26T00:32:51.176Z,15.20
2022-08-26T00:35:20.724Z,15.10
2022-08-26T00:37:51.199Z,15.10
2022-08-26T00:40:23.076Z,15.10
2022-08-26T00:42:51.207Z,15.10
2022-08-26T00:45:19.418Z,15.30
2022-08-26T00:47:50.664Z,15.30
2022-08-26T00:50:26.100Z,15.30
2022-08-26T00:52:58.890Z,15.30
2022-08-26T00:55:34.657Z,15.30
2022-08-26T00:58:08.660Z,15.30
2022-08-26T01:00:37.296Z,15.30
2022-08-26T01:03:05.951Z,15.30
2022-08-26T01:05:40.719Z,15.30
2022-08-26T01:08:10.451Z,15.10
2022-08-26T01:10:38.723Z,15.10
2022-08-26T01:13:11.112Z,15.10
2022-08-26T01:15:43.403Z,15.10
2022-08-26T01:18:14.578Z,15.10
2022-08-26T01:20:52.101Z,15.20
2022-08-26T01:23:29.381Z,15.10
2022-08-26T01:26:01.595Z,15.10
2022-08-26T01:28:34.425Z,15.10
2022-08-26T01:31:06.710Z,15.00
2022-08-26T01:33:42.125Z,15.00
2022-08-26T01:36:12.109Z,14.90
2022-08-26T01:38:42.672Z,14.70
2022-08-26T01:41:16.303Z,14.60
2022-08-26T01:43:51.679Z,14.60
2022-08-26T01:46:21.146Z,14.50
2022-08-26T01:48:54.428Z,14.50
2022-08-26T01:51:24.809Z,14.50
2022-08-26T01:53:54.304Z,14.50
2022-08-26T01:56:23.899Z,14.50
2022-08-26T01:58:55.006Z,14.60
2022-08-26T02:01:29.218Z,14.70
2022-08-26T02:04:04.141Z,14.70
2022-08-26T02:06:32.925Z,14.50
2022-08-26T02:09:05.457Z,14.60
2022-08-26T02:11:34.869Z,14.60
2022-08-26T02:14:09.727Z,14.70
2022-08-26T02:16:42.244Z,14.70
2022-08-26T02:19:16.894Z,14.50
2022-08-26T02:21:51.163Z,14.50
2022-08-26T02:24:23.742Z,14.50
2022-08-26T02:26:57.562Z,14.50
2022-08-26T02:29:31.709Z,14.50
2022-08-26T02:32:00.649Z,14.30
2022-08-26T02:34:33.587Z,14.30
2022-08-26T02:37:06.733Z,14.50
2022-08-26T02:39:38.840Z,14.50
2022-08-26T02:42:07.402Z,14.40
2022-08-26T02:44:36.424Z,14.40
2022-08-26T02:47:05.253Z,14.40
2022-08-26T02:49:33.508Z,14.40
2022-08-26T02:52:02.025Z,14.30
2022-08-26T02:54:30.412Z,14.40
2022-08-26T02:57:00.125Z,14.40
2022-08-26T02:59:29.300Z,14.40
2022-08-26T03:01:58.259Z,14.40
2022-08-26T03:04:27.540Z,14.30
2022-08-26T03:06:56.577Z,14.30
2022-08-26T03:09:28.166Z,14.20
2022-08-26T03:11:56.656Z,14.30
2022-08-26T03:14:26.730Z,14.30
2022-08-26T03:16:55.698Z,14.30
2022-08-26T03:19:25.469Z,14.30
2022-08-26T03:21:57.853Z,14.30
2022-08-26T03:24:26.862Z,14.40
2022-08-26T03:26:55.088Z,14.30
2022-08-26T03:29:43.135Z,14.30
2022-08-26T03:32:11.818Z,14.10
2022-08-26T03:34:42.953Z,14.00
2022-08-26T03:37:11.217Z,14.10
2022-08-26T03:39:39.495Z,14.10
2022-08-26T03:42:09.180Z,14.20
2022-08-26T03:44:42.265Z,14.20
2022-08-26T03:47:11.089Z,14.20
2022-08-26T03:49:39.473Z,14.20
2022-08-26T03:52:08.232Z,14.30
2022-08-26T03:54:36.627Z,14.40
2022-08-26T03:57:04.918Z,14.30
2022-08-26T03:59:33.375Z,14.40
2022-08-26T04:02:03.128Z,14.50
2022-08-26T04:04:37.869Z,14.40
2022-08-26T04:07:06.420Z,14.40
2022-08-26T04:09:35.186Z,14.40
2022-08-26T04:12:04.035Z,14.30
2022-08-26T04:14:35.349Z,14.10
2022-08-26T04:17:08.855Z,14.00
2022-08-26T04:19:37.131Z,13.90
2022-08-26T04:22:05.309Z,13.80
2022-08-26T04:24:34.759Z,13.80
2022-08-26T04:27:03.355Z,13.80
2022-08-26T04:29:31.475Z,13.80
2022-08-26T04:32:01.124Z,13.80
2022-08-26T04:34:31.075Z,13.80
2022-08-26T04:37:00.296Z,13.90
2022-08-26T04:39:29.073Z,13.90
2022-08-26T04:41:57.857Z,14.00
2022-08-26T04:44:28.648Z,14.00
2022-08-26T04:46:57.396Z,14.00
2022-08-26T04:49:26.265Z,14.10
2022-08-26T04:51:57.812Z,14.10
2022-08-26T04:54:26.332Z,14.20
2022-08-26T04:56:55.143Z,14.20
2022-08-26T04:59:23.420Z,14.10
2022-08-26T05:01:56.318Z,14.10
2022-08-26T05:04:24.754Z,14.20
2022-08-26T05:06:56.740Z,14.20
2022-08-26T05:09:29.105Z,14.20
2022-08-26T05:11:59.293Z,14.30
2022-08-26T05:14:27.945Z,14.20
2022-08-26T05:16:56.195Z,14.30
2022-08-26T05:19:27.836Z,14.30
2022-08-26T05:21:56.274Z,14.30
2022-08-26T05:24:24.610Z,14.30
2022-08-26T05:26:54.906Z,14.40
2022-08-26T05:29:25.290Z,14.40
2022-08-26T05:31:56.031Z,14.50
2022-08-26T05:34:24.222Z,14.60
2022-08-26T05:36:58.411Z,14.50
2022-08-26T05:39:26.608Z,14.50
2022-08-26T05:41:56.155Z,14.60
2022-08-26T05:44:24.605Z,14.70
2022-08-26T05:46:52.863Z,14.80
2022-08-26T05:49:26.165Z,14.90
2022-08-26T05:51:54.682Z,14.90
2022-08-26T05:54:22.928Z,14.80
2022-08-26T05:56:51.878Z,14.90
2022-08-26T05:59:24.580Z,14.80
2022-08-26T06:01:54.583Z,14.90
2022-08-26T06:04:24.908Z,15.00
2022-08-26T06:06:55.744Z,15.10
2022-08-26T06:09:24.406Z,15.10
2022-08-26T06:11:52.603Z,15.30
2022-08-26T06:14:26.737Z,15.30
2022-08-26T06:16:56.293Z,15.60
2022-08-26T06:19:25.120Z,15.60
2022-08-26T06:22:23.300Z,15.70
2022-08-26T06:25:09.456Z,15.90
2022-08-26T06:27:38.065Z,16.00
2022-08-26T06:30:10.371Z,16.20
2022-08-26T06:32:38.564Z,16.10
2022-08-26T06:35:11.899Z,16.30
2022-08-26T06:37:41.171Z,16.20
2022-08-26T06:40:11.461Z,16.50
2022-08-26T06:42:40.273Z,16.80
2022-08-26T06:45:10.805Z,16.70
2022-08-26T06:47:39.414Z,17.00
2022-08-26T06:50:08.240Z,17.10
2022-08-26T06:52:36.369Z,17.40
2022-08-26T06:55:05.027Z,17.50
2022-08-26T06:57:34.847Z,17.60
2022-08-26T07:00:08.232Z,18.00
2022-08-26T07:02:37.872Z,18.20
2022-08-26T07:05:06.903Z,18.40
2022-08-26T07:07:36.623Z,18.50
2022-08-26T07:10:05.150Z,18.60
2022-08-26T07:12:34.219Z,18.70
2022-08-26T07:15:03.474Z,19.00
2022-08-26T07:17:32.635Z,19.00
2022-08-26T07:20:06.180Z,19.20
2022-08-26T07:22:34.689Z,19.40
2022-08-26T07:25:02.830Z,19.40
2022-08-26T07:27:31.561Z,19.60
2022-08-26T07:29:59.603Z,19.70
2022-08-26T07:32:30.308Z,19.80
2022-08-26T07:34:59.371Z,20.00
2022-08-26T07:37:28.970Z,20.10
2022-08-26T07:40:05.104Z,20.10
2022-08-26T07:42:34.374Z,20.30
2022-08-26T07:45:03.442Z,20.20
2022-08-26T07:47:31.520Z,20.40
2022-08-26T07:49:59.652Z,20.30
2022-08-26T07:52:31.182Z,20.20
2022-08-26T07:55:01.454Z,20.20
2022-08-26T07:57:31.075Z,20.50
2022-08-26T07:59:59.599Z,20.80
2022-08-26T08:02:29.531Z,21.10
2022-08-26T08:04:58.846Z,21.20
2022-08-26T08:07:45.005Z,21.40
2022-08-26T08:10:18.088Z,21.60
2022-08-26T08:12:46.899Z,21.70
2022-08-26T08:15:16.235Z,21.70
2022-08-26T08:17:45.114Z,21.70
2022-08-26T08:20:14.780Z,21.60
2022-08-26T08:22:44.431Z,21.70
2022-08-26T08:25:13.825Z,21.80
2022-08-26T08:27:45.007Z,22.00
2022-08-26T08:30:14.533Z,22.20
2022-08-26T08:32:44.351Z,22.10
2022-08-26T08:35:14.426Z,22.20
2022-08-26T08:37:44.999Z,22.30
2022-08-26T08:40:18.130Z,22.50
2022-08-26T08:42:48.770Z,22.30
2022-08-26T08:45:24.290Z,22.50
2022-08-26T08:47:56.359Z,22.50
2022-08-26T08:50:28.379Z,22.70
2022-08-26T08:53:14.329Z,22.90
2022-08-26T08:56:04.044Z,22.90
2022-08-26T08:58:44.826Z,22.90
2022-08-26T09:01:19.403Z,22.60
2022-08-26T09:03:53.319Z,22.80
2022-08-26T09:06:24.039Z,22.90
2022-08-26T09:08:58.327Z,22.80
2022-08-26T09:11:26.439Z,22.80
2022-08-26T09:13:56.786Z,23.20
2022-08-26T09:16:35.885Z,23.20
2022-08-26T09:19:14.390Z,23.20
2022-08-26T09:21:42.463Z,23.20
2022-08-26T09:24:13.899Z,23.20
2022-08-26T09:26:47.648Z,23.20
2022-08-26T09:29:23.605Z,23.60
2022-08-26T09:31:53.202Z,23.70
2022-08-26T09:34:24.562Z,23.80
2022-08-26T09:36:55.002Z,23.70
2022-08-26T09:39:33.114Z,23.80
2022-08-26T09:42:12.806Z,24.10
2022-08-26T09:44:56.396Z,24.30
2022-08-26T09:47:31.728Z,24.60
2022-08-26T09:50:04.551Z,24.80
2022-08-26T09:52:37.939Z,25.10
2022-08-26T09:55:15.031Z,25.10
2022-08-26T09:57:49.735Z,25.20
2022-08-26T10:00:34.682Z,25.00
2022-08-26T10:03:10.713Z,25.00
2022-08-26T10:05:44.131Z,24.70
2022-08-26T10:08:28.459Z,24.30
2022-08-26T10:11:00.590Z,24.20
2022-08-26T10:13:34.821Z,24.30
2022-08-26T10:16:17.766Z,24.40
2022-08-26T10:18:50.839Z,24.70
2022-08-26T10:21:22.130Z,24.90
2022-08-26T10:23:54.566Z,24.80
2022-08-26T10:26:29.087Z,24.60
2022-08-26T10:29:06.267Z,24.50
2022-08-26T10:31:41.088Z,24.50
2022-08-26T10:34:12.379Z,24.50
2022-08-26T10:37:14.242Z,24.50
2022-08-26T10:39:46.245Z,24.70
2022-08-26T10:42:22.599Z,24.90
2022-08-26T10:44:58.520Z,25.10
2022-08-26T10:47:33.677Z,25.40
2022-08-26T10:50:03.704Z,25.50
2022-08-26T10:52:40.746Z,25.50
2022-08-26T10:55:17.786Z,25.40
2022-08-26T10:57:56.444Z,25.20
2022-08-26T11:00:47.901Z,25.50
2022-08-26T11:03:31.644Z,25.80
2022-08-26T11:06:26.374Z,26.10
2022-08-26T11:08:56.703Z,26.30
2022-08-26T11:11:46.939Z,26.40
2022-08-26T11:14:46.034Z,26.10
2022-08-26T11:17:56.534Z,25.70
2022-08-26T11:20:36.615Z,25.80
2022-08-26T11:23:40.412Z,26.10
2022-08-26T11:26:27.471Z,26.40
2022-08-26T11:29:12.008Z,26.60
2022-08-26T11:31:57.161Z,26.50
2022-08-26T11:34:55.161Z,26.50
2022-08-26T11:37:32.339Z,26.80
2022-08-26T11:40:04.739Z,27.00
2022-08-26T11:42:37.766Z,26.90
2022-08-26T11:45:19.231Z,26.90
2022-08-26T11:47:49.254Z,26.70
2022-08-26T11:50:23.265Z,26.80
2022-08-26T11:53:01.585Z,26.80
2022-08-26T11:55:32.125Z,26.40
2022-08-26T11:58:02.695Z,26.20
2022-08-26T12:00:37.634Z,26.20
2022-08-26T12:03:09.324Z,26.10
2022-08-26T12:05:43.651Z,26.10
2022-08-26T12:08:19.429Z,26.10
2022-08-26T12:10:48.428Z,26.40
2022-08-26T12:13:26.497Z,26.50
2022-08-26T12:15:57.033Z,26.60
2022-08-26T12:18:30.261Z,26.60
2022-08-26T12:21:01.324Z,26.90
2022-08-26T12:23:41.147Z,26.70
2022-08-26T12:26:14.169Z,26.40
2022-08-26T12:28:46.911Z,26.50
2022-08-26T12:31:23.529Z,26.60
2022-08-26T12:33:54.096Z,26.00
2022-08-26T12:36:27.629Z,26.30
2022-08-26T12:38:58.501Z,26.20
2022-08-26T12:41:44.755Z,26.30
2022-08-26T12:44:38.736Z,26.50
2022-08-26T12:47:10.814Z,26.40
2022-08-26T12:49:42.281Z,26.60
2022-08-26T12:52:29.878Z,27.00
2022-08-26T12:54:59.984Z,27.20
2022-08-26T12:57:31.308Z,27.40
2022-08-26T13:00:32.082Z,27.60
2022-08-26T13:03:01.833Z,27.70
2022-08-26T13:05:35.082Z,27.60
2022-08-26T13:08:16.441Z,27.40
2022-08-26T13:10:47.718Z,27.40
2022-08-26T13:13:16.298Z,27.30
2022-08-26T13:15:44.703Z,27.50
2022-08-26T13:18:12.802Z,27.60
2022-08-26T13:20:44.880Z,27.80
2022-08-26T13:23:13.598Z,27.70
2022-08-26T13:25:42.052Z,27.20
2022-08-26T13:28:10.082Z,27.00
2022-08-26T13:30:38.306Z,27.00
2022-08-26T13:33:08.646Z,27.00
2022-08-26T13:35:40.472Z,26.90
2022-08-26T13:38:14.746Z,26.70
2022-08-26T13:41:02.673Z,26.80
2022-08-26T13:43:31.310Z,26.70
2022-08-26T13:46:01.580Z,26.70
2022-08-26T13:48:29.786Z,26.70
2022-08-26T13:50:57.958Z,26.80
2022-08-26T13:53:29.417Z,26.90
2022-08-26T13:55:57.674Z,27.00
2022-08-26T13:58:26.040Z,27.10
2022-08-26T14:00:54.963Z,27.10
2022-08-26T14:03:24.695Z,26.90
2022-08-26T14:05:53.335Z,26.80
2022-08-26T14:08:21.703Z,26.90
2022-08-26T14:10:51.359Z,27.00
2022-08-26T14:13:19.944Z,26.90
2022-08-26T14:15:48.481Z,26.90
2022-08-26T14:18:19.419Z,27.10
2022-08-26T14:20:50.526Z,27.30
2022-08-26T14:23:19.055Z,27.40
2022-08-26T14:25:47.187Z,27.40
2022-08-26T14:28:16.660Z,27.40
2022-08-26T14:30:47.496Z,27.40
2022-08-26T14:33:16.615Z,27.40
2022-08-26T14:35:47.927Z,27.40
2022-08-26T14:38:17.537Z,27.00
2022-08-26T14:40:46.023Z,27.50
2022-08-26T14:43:16.778Z,27.90
2022-08-26T14:45:46.090Z,28.20
2022-08-26T14:48:14.398Z,28.20
2022-08-26T14:50:42.475Z,28.00
2022-08-26T14:53:28.184Z,27.80
2022-08-26T14:55:56.526Z,27.70
2022-08-26T14:58:26.000Z,27.90
2022-08-26T15:01:04.375Z,27.90
2022-08-26T15:03:32.734Z,28.00
2022-08-26T15:06:00.879Z,28.00
2022-08-26T15:08:28.927Z,28.20
2022-08-26T15:10:57.175Z,28.20
2022-08-26T15:13:26.594Z,28.30
2022-08-26T15:15:54.689Z,28.20
2022-08-26T15:18:23.414Z,28.10
2022-08-26T15:20:51.435Z,27.80
2022-08-26T15:23:19.778Z,27.60
2022-08-26T15:25:49.444Z,27.50
2022-08-26T15:28:17.516Z,27.40
2022-08-26T15:30:47.038Z,27.40
2022-08-26T15:33:15.627Z,27.50
2022-08-26T15:35:43.791Z,27.70
2022-08-26T15:38:12.551Z,27.70
2022-08-26T15:40:40.683Z,27.60
2022-08-26T15:43:25.727Z,27.30
2022-08-26T15:45:58.296Z,27.20
2022-08-26T15:48:26.810Z,27.00
2022-08-26T15:50:56.953Z,26.80
2022-08-26T15:53:26.109Z,26.70
2022-08-26T15:55:56.316Z,26.70
2022-08-26T15:58:26.964Z,26.60
2022-08-26T16:00:57.522Z,26.60
2022-08-26T16:03:26.514Z,26.50
2022-08-26T16:05:54.613Z,26.40
2022-08-26T16:08:22.764Z,26.30
2022-08-26T16:10:51.334Z,26.20
2022-08-26T16:13:20.789Z,26.00
2022-08-26T16:15:49.468Z,25.80
2022-08-26T16:18:20.285Z,25.90
2022-08-26T16:21:12.301Z,25.80
2022-08-26T16:23:43.186Z,25.70
2022-08-26T16:26:15.462Z,25.50
2022-08-26T16:28:44.435Z,25.50
2022-08-26T16:31:13.280Z,25.50
2022-08-26T16:33:42.938Z,25.40
2022-08-26T16:36:12.032Z,25.20
2022-08-26T16:38:41.016Z,25.20
2022-08-26T16:41:09.757Z,25.00
2022-08-26T16:43:38.136Z,24.80
2022-08-26T16:46:07.975Z,24.80
2022-08-26T16:48:38.990Z,24.80
2022-08-26T16:51:12.547Z,24.60
2022-08-26T16:53:40.839Z,24.50
2022-08-26T16:56:13.050Z,24.50
2022-08-26T16:58:41.653Z,24.40
2022-08-26T17:01:10.020Z,24.30
2022-08-26T17:03:38.445Z,24.20
2022-08-26T17:06:08.803Z,24.10
2022-08-26T17:08:38.262Z,24.00
2022-08-26T17:11:07.019Z,23.80
2022-08-26T17:13:36.178Z,23.60
2022-08-26T17:16:06.289Z,23.60
2022-08-26T17:18:35.161Z,23.50
2022-08-26T17:21:05.033Z,23.40
2022-08-26T17:23:35.382Z,23.30
2022-08-26T17:26:04.508Z,23.20
2022-08-26T17:28:32.998Z,23.10
2022-08-26T17:31:01.624Z,22.90
2022-08-26T17:33:30.624Z,22.70
2022-08-26T17:36:01.163Z,22.70
2022-08-26T17:38:30.031Z,22.80
2022-08-26T17:40:59.854Z,22.60
2022-08-26T17:43:28.323Z,22.60
2022-08-26T17:46:06.628Z,22.60
2022-08-26T17:48:36.747Z,22.70
2022-08-26T17:51:09.011Z,22.60
2022-08-26T17:53:37.524Z,22.60
2022-08-26T17:56:08.942Z,22.60
2022-08-26T17:58:38.027Z,22.40
2022-08-26T18:01:06.806Z,22.30
2022-08-26T18:03:35.663Z,22.20
2022-08-26T18:06:04.242Z,22.10
2022-08-26T18:08:32.376Z,21.90
2022-08-26T18:11:00.454Z,22.00
2022-08-26T18:13:30.476Z,22.00
2022-08-26T18:15:59.010Z,22.00
2022-08-26T18:18:27.750Z,21.90
2022-08-26T18:21:01.402Z,21.90
2022-08-26T18:23:31.412Z,21.90
2022-08-26T18:25:59.987Z,21.80
2022-08-26T18:28:29.432Z,21.80
2022-08-26T18:31:00.514Z,21.60
2022-08-26T18:33:28.771Z,21.40
2022-08-26T18:35:56.976Z,21.40
2022-08-26T18:38:25.227Z,21.30
2022-08-26T18:40:56.699Z,21.20
2022-08-26T18:43:24.920Z,21.10
2022-08-26T18:46:05.156Z,21.10
2022-08-26T18:48:33.445Z,21.10
2022-08-26T18:51:01.857Z,20.90
2022-08-26T18:53:31.639Z,21.00
2022-08-26T18:56:00.323Z,20.90
2022-08-26T18:58:28.552Z,20.90
2022-08-26T19:00:56.703Z,20.90
2022-08-26T19:03:28.601Z,20.90
2022-08-26T19:05:56.838Z,20.70
2022-08-26T19:08:25.138Z,20.80
2022-08-26T19:10:53.680Z,20.80
2022-08-26T19:13:22.011Z,20.70
2022-08-26T19:15:51.243Z,20.70
2022-08-26T19:18:19.933Z,20.70
2022-08-26T19:20:49.466Z,20.70
2022-08-26T19:23:31.614Z,20.70
2022-08-26T19:26:04.130Z,20.60
2022-08-26T19:28:32.744Z,20.60
2022-08-26T19:31:02.610Z,20.50
2022-08-26T19:33:31.599Z,20.50
2022-08-26T19:36:03.744Z,20.40
2022-08-26T19:38:35.155Z,20.40
2022-08-26T19:41:03.378Z,20.20
2022-08-26T19:43:32.181Z,20.20
2022-08-26T19:46:00.377Z,20.20
2022-08-26T19:48:29.606Z,20.20
2022-08-26T19:50:57.626Z,20.10
2022-08-26T19:53:27.103Z,20.10
2022-08-26T19:55:55.231Z,20.00
2022-08-26T19:58:23.270Z,20.00
2022-08-26T20:00:51.471Z,19.90
2022-08-26T20:03:19.548Z,19.90
2022-08-26T20:05:47.663Z,19.90
2022-08-26T20:08:22.152Z,19.90
2022-08-26T20:10:52.648Z,19.80
2022-08-26T20:13:21.831Z,19.80
2022-08-26T20:15:50.123Z,19.70
2022-08-26T20:18:35.706Z,19.80
2022-08-26T20:21:21.057Z,19.80
2022-08-26T20:23:49.148Z,19.70
2022-08-26T20:26:18.975Z,19.50
2022-08-26T20:28:47.246Z,19.40
2022-08-26T20:31:19.416Z,19.20
2022-08-26T20:33:49.446Z,19.20
2022-08-26T20:36:17.613Z,19.20
2022-08-26T20:38:46.223Z,19.20
2022-08-26T20:41:14.643Z,19.30
2022-08-26T20:43:44.294Z,19.50
2022-08-26T20:46:18.122Z,19.60
2022-08-26T20:48:48.522Z,19.60
2022-08-26T20:51:16.858Z,19.50
2022-08-26T20:53:45.359Z,19.40
2022-08-26T20:56:15.503Z,19.30
2022-08-26T20:58:46.592Z,19.20
2022-08-26T21:01:19.556Z,19.00
2022-08-26T21:03:48.463Z,19.10
2022-08-26T21:06:16.628Z,19.20
2022-08-26T21:08:44.993Z,19.10
2022-08-26T21:11:13.172Z,18.90
2022-08-26T21:14:03.491Z,19.00
2022-08-26T21:16:31.326Z,19.10
2022-08-26T21:19:00.505Z,19.10
2022-08-26T21:21:28.763Z,19.00
2022-08-26T21:23:57.093Z,19.10
2022-08-26T21:26:25.791Z,19.10
2022-08-26T21:28:54.376Z,19.10
2022-08-26T21:31:24.880Z,19.10
2022-08-26T21:33:54.386Z,19.00
2022-08-26T21:36:22.446Z,18.90
2022-08-26T21:38:50.507Z,18.80
2022-08-26T21:41:20.823Z,18.90
2022-08-26T21:43:50.154Z,19.00
2022-08-26T21:46:21.794Z,19.00
2022-08-26T21:48:51.947Z,18.90
2022-08-26T21:51:23.169Z,18.90
2022-08-26T21:53:52.707Z,18.80
2022-08-26T21:56:21.667Z,18.70
2022-08-26T21:58:49.947Z,18.70
2022-08-26T22:01:23.031Z,18.70
2022-08-26T22:03:53.318Z,18.70
2022-08-26T22:06:25.072Z,18.70
2022-08-26T22:08:54.518Z,18.60
2022-08-26T22:11:22.827Z,18.50
2022-08-26T22:13:51.886Z,18.30
2022-08-26T22:16:20.780Z,18.30
2022-08-26T22:18:48.841Z,18.30
2022-08-26T22:21:19.995Z,18.20
2022-08-26T22:23:49.388Z,18.20
2022-08-26T22:26:20.582Z,18.10
2022-08-26T22:28:58.681Z,18.10
2022-08-26T22:31:36.895Z,18.00
2022-08-26T22:34:08.686Z,17.80
2022-08-26T22:36:43.229Z,17.80
2022-08-26T22:39:14.602Z,18.00
2022-08-26T22:41:43.386Z,18.00
2022-08-26T22:44:12.473Z,18.10
2022-08-26T22:46:41.715Z,18.10
2022-08-26T22:49:12.039Z,18.10
2022-08-26T22:51:40.265Z,18.10
2022-08-26T22:54:08.346Z,18.10
2022-08-26T22:56:38.879Z,18.10
2022-08-26T22:59:07.872Z,18.10
2022-08-26T23:01:37.380Z,18.00
2022-08-26T23:04:07.530Z,17.90
2022-08-26T23:06:37.337Z,17.90
2022-08-26T23:09:06.062Z,17.90
2022-08-26T23:11:34.864Z,17.90
2022-08-26T23:14:06.482Z,17.90
2022-08-26T23:16:39.278Z,17.90
2022-08-26T23:19:08.664Z,17.90
2022-08-26T23:21:37.073Z,17.90
2022-08-26T23:24:05.783Z,17.90
2022-08-26T23:26:34.796Z,17.80
2022-08-26T23:29:04.939Z,17.70
2022-08-26T23:31:33.876Z,17.70
2022-08-26T23:34:19.205Z,17.70
2022-08-26T23:36:47.562Z,17.60
2022-08-26T23:39:15.715Z,17.50
2022-08-26T23:41:43.790Z,17.60
2022-08-26T23:44:13.401Z,17.60
2022-08-26T23:46:41.473Z,17.60
2022-08-26T23:49:09.652Z,17.50
2022-08-26T23:51:56.586Z,17.50
2022-08-26T23:54:24.726Z,17.40
2022-08-26T23:56:52.798Z,17.50
2022-08-26T23:59:22.340Z,17.50
